Time;durP1;ratioP1;P1;durP2;ratioP2;P2;SDS_P1;SDS_P2;PMS_P1;PMS_P2;Temp;Humidity;BMP_temperature;BMP_pressure;BME280_temperature;BME280_humidity;BME280_pressure;Samples;Min_cycle;Max_cycle;Signal;HPM_P1;HPM_P2
2022/10/31 00:02:19;;;;;;;5.17;4.77;;;22.30;47.20;;;;;;5038996;28;20230;-64
2022/10/31 00:04:45;;;;;;;5.47;5.07;;;22.30;47.20;;;;;;5038997;28;20257;-63
2022/10/31 00:07:10;;;;;;;4.40;4.10;;;22.30;47.20;;;;;;5041623;28;20690;-63
2022/10/31 00:09:36;;;;;;;5.20;4.80;;;22.30;47.20;;;;;;5040868;28;20900;-63
2022/10/31 00:12:01;;;;;;;5.00;4.53;;;22.30;47.20;;;;;;5042577;28;20226;-64
2022/10/31 00:14:27;;;;;;;4.47;4.17;;;22.30;47.20;;;;;;5041278;28;20233;-63
2022/10/31 00:16:52;;;;;;;4.80;4.40;;;22.30;47.20;;;;;;5040226;28;20222;-63
2022/10/31 00:19:18;;;;;;;5.17;4.87;;;22.30;47.30;;;;;;5041024;28;20222;-63
2022/10/31 00:21:43;;;;;;;4.67;4.40;;;22.30;47.20;;;;;;5020869;28;20619;-63
2022/10/31 00:24:10;;;;;;;6.40;5.40;;;22.30;47.20;;;;;;5039990;28;20675;-64
2022/10/31 00:26:36;;;;;;;4.63;4.33;;;22.30;47.20;;;;;;5042714;28;20231;-63
2022/10/31 00:29:02;;;;;;;4.80;4.50;;;22.30;47.20;;;;;;5037521;28;20962;-64
2022/10/31 00:31:28;;;;;;;5.00;4.60;;;22.30;47.20;;;;;;5041440;28;20249;-64
2022/10/31 00:33:54;;;;;;;4.70;4.40;;;22.30;47.20;;;;;;5038597;28;20235;-63
2022/10/31 00:36:20;;;;;;;4.80;4.60;;;22.30;47.10;;;;;;5043061;28;20460;-63
2022/10/31 00:38:47;;;;;;;4.37;4.07;;;22.30;47.30;;;;;;5034588;28;20232;-63
2022/10/31 00:41:14;;;;;;;5.20;4.90;;;22.30;47.10;;;;;;5039634;28;20443;-64
2022/10/31 00:43:39;;;;;;;5.60;5.10;;;22.30;47.10;;;;;;5040245;28;20467;-64
2022/10/31 00:46:05;;;;;;;4.50;4.30;;;22.30;47.20;;;;;;5038461;28;20463;-63
2022/10/31 00:48:31;;;;;;;4.73;4.40;;;22.30;47.20;;;;;;5041872;28;20262;-62
2022/10/31 00:50:56;;;;;;;4.53;4.23;;;22.30;47.20;;;;;;5040594;28;20230;-63
2022/10/31 00:53:22;;;;;;;4.80;4.43;;;22.30;47.30;;;;;;5038317;28;20705;-63
2022/10/31 00:55:48;;;;;;;4.83;4.53;;;22.20;47.10;;;;;;5031054;28;20233;-64
2022/10/31 00:58:13;;;;;;;4.87;4.57;;;22.30;47.30;;;;;;5039409;28;20237;-62
2022/10/31 01:00:39;;;;;;;5.07;4.77;;;22.30;47.30;;;;;;5037382;28;20447;-62
2022/10/31 01:03:05;;;;;;;4.73;4.43;;;22.30;47.30;;;;;;5055224;28;20235;-63
2022/10/31 01:05:31;;;;;;;5.17;4.83;;;22.30;47.30;;;;;;5035370;28;20239;-63
2022/10/31 01:07:56;;;;;;;5.20;4.90;;;22.30;47.30;;;;;;5039733;28;20229;-64
2022/10/31 01:10:22;;;;;;;5.40;5.00;;;22.20;47.20;;;;;;5037553;28;20257;-62
2022/10/31 01:12:48;;;;;;;4.47;4.27;;;22.30;47.30;;;;;;5041200;28;20221;-63
2022/10/31 01:15:17;;;;;;;5.77;5.33;;;22.30;47.30;;;;;;5043804;28;20217;-63
2022/10/31 01:17:43;;;;;;;5.40;5.10;;;22.30;47.30;;;;;;5044499;28;20570;-63
2022/10/31 01:20:10;;;;;;;4.30;4.10;;;22.20;47.20;;;;;;5045829;28;20550;-63
2022/10/31 01:22:35;;;;;;;5.00;4.70;;;22.30;47.30;;;;;;5044971;28;20653;-64
2022/10/31 01:25:01;;;;;;;6.87;4.87;;;22.20;47.20;;;;;;5042507;28;20515;-64
2022/10/31 01:27:26;;;;;;;5.10;4.80;;;22.20;47.10;;;;;;5044924;28;20249;-63
2022/10/31 01:29:52;;;;;;;4.63;4.33;;;22.20;47.20;;;;;;5043192;28;20222;-63
2022/10/31 01:32:17;;;;;;;4.37;4.03;;;22.30;47.30;;;;;;5043620;28;20221;-64
2022/10/31 01:34:43;;;;;;;4.93;4.53;;;22.20;47.20;;;;;;5040890;28;20245;-62
2022/10/31 01:37:08;;;;;;;4.90;4.67;;;22.20;47.10;;;;;;5043949;28;20297;-64
2022/10/31 01:39:34;;;;;;;5.17;4.80;;;22.30;48.10;;;;;;5044477;28;20222;-63
2022/10/31 01:41:59;;;;;;;4.93;4.60;;;22.20;47.20;;;;;;5042882;28;20222;-63
2022/10/31 01:44:26;;;;;;;4.97;4.67;;;22.20;47.10;;;;;;5038103;28;20681;-64
2022/10/31 01:47:11;;;;;;;4.53;4.23;;;22.20;47.20;;;;;;5038788;28;20582;-63
2022/10/31 01:49:51;;;;;;;5.00;4.67;;;22.20;47.20;;;;;;5031466;28;20466;-64
2022/10/31 01:52:43;;;;;;;4.90;4.60;;;22.20;47.20;;;;;;5023414;28;20489;-63
2022/10/31 01:55:25;;;;;;;7.23;5.33;;;22.20;47.20;;;;;;5031597;28;20823;-64
2022/10/31 01:57:54;;;;;;;4.70;4.40;;;22.20;47.20;;;;;;5028604;28;20454;-63
2022/10/31 02:00:21;;;;;;;5.20;4.70;;;22.20;47.20;;;;;;5042707;28;20443;-63
2022/10/31 02:02:48;;;;;;;5.07;4.77;;;22.20;47.20;;;;;;5045787;28;20849;-63
2022/10/31 02:05:19;;;;;;;5.13;4.77;;;22.20;47.20;;;;;;5042819;28;20491;-64
2022/10/31 02:07:59;;;;;;;4.37;4.17;;;22.20;47.20;;;;;;5044159;28;20647;-63
2022/10/31 02:10:27;;;;;;;5.00;4.47;;;22.20;47.20;;;;;;5040904;28;20554;-64
2022/10/31 02:12:56;;;;;;;5.40;4.90;;;22.20;47.20;;;;;;5042884;28;20466;-63
2022/10/31 02:15:22;;;;;;;4.50;4.20;;;22.20;47.20;;;;;;5045112;28;20458;-62
2022/10/31 02:17:47;;;;;;;5.37;4.97;;;22.20;47.20;;;;;;5040818;28;21130;-64
2022/10/31 02:20:19;;;;;;;5.00;4.70;;;22.20;47.20;;;;;;5045570;28;20259;-63
2022/10/31 02:23:08;;;;;;;5.13;4.73;;;22.20;47.20;;;;;;5041381;28;20670;-62
2022/10/31 02:26:19;;;;;;;4.67;4.37;;;22.20;47.20;;;;;;5036307;28;20459;-64
2022/10/31 02:29:20;;;;;;;4.40;4.10;;;22.20;47.20;;;;;;5042585;28;20506;-64
2022/10/31 02:31:57;;;;;;;4.50;4.20;;;22.20;47.20;;;;;;5044412;28;20481;-64
2022/10/31 02:34:34;;;;;;;4.97;4.67;;;22.20;47.20;;;;;;5041516;28;20573;-64
2022/10/31 02:37:13;;;;;;;4.47;4.27;;;22.20;47.20;;;;;;5044732;28;20504;-63
2022/10/31 02:39:41;;;;;;;4.70;4.40;;;22.20;47.20;;;;;;5042495;28;20812;-63
2022/10/31 02:42:16;;;;;;;5.30;4.77;;;22.20;47.30;;;;;;5039337;28;20534;-65
2022/10/31 02:44:50;;;;;;;4.60;4.40;;;22.20;47.30;;;;;;5043102;28;20541;-65
2022/10/31 02:47:18;;;;;;;4.37;4.07;;;22.20;47.30;;;;;;5040759;28;20478;-64
2022/10/31 02:50:06;;;;;;;4.50;4.20;;;22.20;47.30;;;;;;5037570;28;20555;-63
2022/10/31 02:52:33;;;;;;;4.50;4.30;;;22.20;47.20;;;;;;5041711;28;20454;-64
2022/10/31 02:55:10;;;;;;;4.53;4.23;;;22.20;47.20;;;;;;5041907;28;20593;-64
2022/10/31 02:57:39;;;;;;;5.37;4.93;;;22.20;47.20;;;;;;5027529;28;20455;-63
2022/10/31 03:00:08;;;;;;;5.07;4.67;;;22.20;47.30;;;;;;5043933;28;20542;-64
2022/10/31 03:02:48;;;;;;;4.90;4.50;;;22.20;47.30;;;;;;5035432;28;20447;-64
2022/10/31 03:05:23;;;;;;;4.90;4.53;;;22.20;47.20;;;;;;5041606;28;20463;-63
2022/10/31 03:08:20;;;;;;;5.10;4.80;;;22.20;47.30;;;;;;5042618;28;20455;-64
2022/10/31 03:10:57;;;;;;;8.70;4.30;;;22.20;47.30;;;;;;5039616;28;20447;-62
2022/10/31 03:13:44;;;;;;;4.13;3.87;;;22.20;47.30;;;;;;5042657;28;20524;-63
2022/10/31 03:16:37;;;;;;;4.83;4.53;;;22.20;47.30;;;;;;5043612;28;21009;-63
2022/10/31 03:19:09;;;;;;;4.07;3.80;;;22.20;47.30;;;;;;5041413;28;20563;-63
2022/10/31 03:21:50;;;;;;;4.50;4.20;;;22.20;47.80;;;;;;5042844;28;20456;-63
2022/10/31 03:24:16;;;;;;;4.60;4.40;;;22.20;47.50;;;;;;5041393;28;20542;-63
2022/10/31 03:26:49;;;;;;;4.23;4.00;;;22.20;47.50;;;;;;5033104;28;20988;-63
2022/10/31 03:29:17;;;;;;;5.17;4.77;;;22.20;47.50;;;;;;5040486;28;20886;-62
2022/10/31 03:31:55;;;;;;;5.20;4.80;;;22.20;47.50;;;;;;5040851;28;20473;-63
2022/10/31 03:34:21;;;;;;;4.30;4.00;;;22.20;47.50;;;;;;5038977;28;20505;-63
2022/10/31 03:36:54;;;;;;;4.60;4.30;;;22.20;47.40;;;;;;5044515;28;20970;-63
2022/10/31 03:39:22;;;;;;;5.60;4.47;;;22.20;47.50;;;;;;5040960;28;20841;-64
2022/10/31 03:42:00;;;;;;;4.67;4.40;;;22.20;47.50;;;;;;5037979;28;20440;-63
2022/10/31 03:44:29;;;;;;;4.70;4.30;;;22.20;47.40;;;;;;5033729;28;20456;-62
2022/10/31 03:46:54;;;;;;;4.20;3.90;;;22.20;47.30;;;;;;5039065;28;20501;-63
2022/10/31 03:49:21;;;;;;;5.93;5.43;;;22.20;47.50;;;;;;5040251;28;20946;-63
2022/10/31 03:52:07;;;;;;;5.43;4.27;;;22.20;47.40;;;;;;5041493;28;20273;-63
2022/10/31 03:54:41;;;;;;;4.43;4.23;;;22.20;47.40;;;;;;5039510;28;20475;-64
2022/10/31 03:57:19;;;;;;;5.20;4.80;;;22.20;47.40;;;;;;5039863;28;20471;-64
2022/10/31 03:59:50;;;;;;;4.60;4.20;;;22.20;47.30;;;;;;5037547;28;20512;-64
2022/10/31 04:02:18;;;;;;;5.00;4.60;;;22.20;47.40;;;;;;5037743;28;20462;-64
2022/10/31 04:04:46;;;;;;;4.53;4.33;;;22.20;47.40;;;;;;5039567;28;20529;-63
2022/10/31 04:07:13;;;;;;;4.60;4.30;;;22.20;47.30;;;;;;5038026;28;20460;-63
2022/10/31 04:09:41;;;;;;;4.60;4.20;;;22.20;47.30;;;;;;5036035;28;20550;-63
2022/10/31 04:12:10;;;;;;;4.80;4.30;;;22.20;47.40;;;;;;5037272;28;20448;-63
2022/10/31 04:14:39;;;;;;;7.37;4.30;;;22.20;47.40;;;;;;5041770;28;20474;-64
2022/10/31 04:17:10;;;;;;;4.53;4.13;;;22.20;47.30;;;;;;5031675;28;20455;-63
2022/10/31 04:19:36;;;;;;;4.60;4.33;;;22.20;47.40;;;;;;5038740;28;20463;-64
2022/10/31 04:22:01;;;;;;;5.00;4.70;;;22.20;47.30;;;;;;5040431;28;20451;-63
2022/10/31 04:24:27;;;;;;;4.50;4.20;;;22.20;47.30;;;;;;5029067;28;20307;-64
2022/10/31 04:26:52;;;;;;;4.77;4.47;;;22.20;47.30;;;;;;5037252;28;20234;-62
2022/10/31 04:29:18;;;;;;;5.00;4.60;;;22.20;47.30;;;;;;5038421;28;20304;-63
2022/10/31 04:31:43;;;;;;;4.87;4.47;;;22.20;47.30;;;;;;5035163;28;20840;-63
2022/10/31 04:34:09;;;;;;;4.57;4.27;;;22.20;47.20;;;;;;5040081;28;20234;-63
2022/10/31 04:36:34;;;;;;;4.30;4.03;;;22.20;47.10;;;;;;5040979;28;20222;-64
2022/10/31 04:39:00;;;;;;;4.27;3.97;;;22.20;47.20;;;;;;5038949;28;20225;-63
2022/10/31 04:41:25;;;;;;;4.10;3.90;;;22.20;47.10;;;;;;5037270;28;20227;-62
2022/10/31 04:43:51;;;;;;;5.80;3.97;;;22.20;47.10;;;;;;5038403;28;20233;-63
2022/10/31 04:46:16;;;;;;;4.50;4.20;;;22.20;47.20;;;;;;5041430;28;20209;-64
2022/10/31 04:48:42;;;;;;;4.60;4.30;;;22.10;47.10;;;;;;5034719;28;20223;-63
2022/10/31 04:51:08;;;;;;;4.97;4.60;;;22.20;47.10;;;;;;5038312;28;20226;-64
2022/10/31 04:53:33;;;;;;;4.30;3.93;;;22.20;47.10;;;;;;5039948;28;20262;-63
2022/10/31 04:56:02;;;;;;;4.47;4.07;;;22.10;47.00;;;;;;5040619;28;20280;-63
2022/10/31 04:58:27;;;;;;;4.93;4.63;;;22.20;47.00;;;;;;5041965;28;20233;-63
2022/10/31 05:00:54;;;;;;;4.63;4.43;;;22.20;47.80;;;;;;5038382;28;20496;-63
2022/10/31 05:03:20;;;;;;;5.80;5.30;;;22.20;47.00;;;;;;5040317;28;20214;-63
2022/10/31 05:05:46;;;;;;;5.40;4.87;;;22.20;46.80;;;;;;5039430;28;20516;-64
2022/10/31 05:08:11;;;;;;;4.27;3.97;;;22.20;46.70;;;;;;5042663;28;20746;-64
2022/10/31 05:10:37;;;;;;;4.10;3.80;;;22.20;46.70;;;;;;5040194;28;20707;-63
2022/10/31 05:13:04;;;;;;;4.83;4.43;;;22.20;46.60;;;;;;5042245;28;20225;-63
2022/10/31 05:15:29;;;;;;;3.90;3.70;;;22.20;46.60;;;;;;5040360;28;20713;-64
2022/10/31 05:17:55;;;;;;;4.67;4.37;;;22.20;46.60;;;;;;5041691;28;20447;-65
2022/10/31 05:20:23;;;;;;;4.60;4.30;;;22.20;46.70;;;;;;5037079;28;20554;-64
2022/10/31 05:22:52;;;;;;;4.40;4.10;;;22.20;46.80;;;;;;5038178;28;20218;-64
2022/10/31 05:25:18;;;;;;;5.30;4.80;;;22.20;46.60;;;;;;5032327;28;20584;-63
2022/10/31 05:27:47;;;;;;;5.20;4.80;;;22.20;46.70;;;;;;5038136;28;20451;-63
2022/10/31 05:30:16;;;;;;;5.70;4.50;;;22.20;46.60;;;;;;5035414;28;20449;-63
2022/10/31 05:32:44;;;;;;;4.37;3.97;;;22.20;46.60;;;;;;5037855;28;20462;-63
2022/10/31 05:35:13;;;;;;;4.60;4.30;;;22.20;46.60;;;;;;5040056;28;20514;-64
2022/10/31 05:37:38;;;;;;;4.53;4.13;;;22.20;46.60;;;;;;5037382;28;20464;-64
2022/10/31 05:40:06;;;;;;;3.90;3.70;;;22.20;46.60;;;;;;5034807;28;20466;-62
2022/10/31 05:42:32;;;;;;;4.57;4.27;;;22.20;46.60;;;;;;5036096;28;20217;-63
2022/10/31 05:44:57;;;;;;;4.77;4.47;;;22.20;46.60;;;;;;5035385;28;20463;-64
2022/10/31 05:47:23;;;;;;;5.77;5.23;;;22.20;46.60;;;;;;5034460;28;20222;-64
2022/10/31 05:49:49;;;;;;;5.23;4.83;;;22.20;46.60;;;;;;5035397;28;20295;-65
2022/10/31 05:52:14;;;;;;;5.07;4.67;;;22.20;46.60;;;;;;5036805;28;20450;-64
2022/10/31 05:54:40;;;;;;;5.57;5.07;;;22.20;46.60;;;;;;5032155;28;20320;-65
2022/10/31 05:57:06;;;;;;;5.30;4.83;;;22.20;46.60;;;;;;5035414;28;20246;-64
2022/10/31 05:59:31;;;;;;;6.00;5.53;;;22.20;46.60;;;;;;5028929;28;20863;-64
2022/10/31 06:01:57;;;;;;;5.67;5.27;;;22.20;46.60;;;;;;5015144;28;20233;-63
2022/10/31 06:04:23;;;;;;;4.90;4.50;;;22.20;46.50;;;;;;4956669;28;20301;-65
2022/10/31 06:06:48;;;;;;;6.53;4.47;;;22.10;46.20;;;;;;5031437;28;20623;-63
2022/10/31 06:09:14;;;;;;;5.40;4.67;;;22.10;46.00;;;;;;5027496;28;20635;-63
2022/10/31 06:11:39;;;;;;;5.23;4.83;;;22.10;46.00;;;;;;5013413;28;20292;-64
2022/10/31 06:14:05;;;;;;;5.50;5.00;;;22.10;45.70;;;;;;5030984;28;20228;-63
2022/10/31 06:16:31;;;;;;;6.10;4.80;;;22.10;45.60;;;;;;5035105;28;20218;-63
2022/10/31 06:18:56;;;;;;;5.03;4.73;;;22.10;45.50;;;;;;5030591;28;20986;-65
2022/10/31 06:21:22;;;;;;;5.60;4.57;;;22.10;45.40;;;;;;5029291;28;22241;-64
2022/10/31 06:23:48;;;;;;;6.00;5.07;;;22.10;45.30;;;;;;5035138;28;20226;-64
2022/10/31 06:26:13;;;;;;;4.90;4.60;;;22.10;45.20;;;;;;5032486;28;20662;-64
2022/10/31 06:28:39;;;;;;;4.87;4.53;;;22.10;45.10;;;;;;5032752;28;20279;-64
2022/10/31 06:31:04;;;;;;;4.70;4.40;;;22.10;45.10;;;;;;5032924;28;20221;-63
2022/10/31 06:33:30;;;;;;;5.47;5.00;;;22.10;45.00;;;;;;5023924;28;20238;-65
2022/10/31 06:35:55;;;;;;;6.00;5.40;;;22.10;44.80;;;;;;5020705;28;20304;-64
2022/10/31 06:38:21;;;;;;;4.97;4.57;;;22.00;44.80;;;;;;5034315;28;20381;-65
2022/10/31 06:40:46;;;;;;;5.50;5.07;;;22.10;44.70;;;;;;5023100;28;20230;-65
2022/10/31 06:43:14;;;;;;;5.20;4.80;;;22.10;44.60;;;;;;5034509;28;20246;-64
2022/10/31 06:45:39;;;;;;;6.43;5.40;;;22.10;44.60;;;;;;5027475;28;20742;-64
2022/10/31 06:48:05;;;;;;;4.70;4.30;;;22.10;44.50;;;;;;5026207;28;20584;-65
2022/10/31 06:50:31;;;;;;;4.70;4.40;;;22.00;44.50;;;;;;5021618;28;20287;-63
2022/10/31 06:52:58;;;;;;;5.27;4.80;;;22.00;44.40;;;;;;5029435;28;20471;-64
2022/10/31 06:55:25;;;;;;;5.57;5.17;;;22.00;44.20;;;;;;5036354;28;20962;-65
2022/10/31 06:58:00;;;;;;;5.00;4.70;;;22.00;44.20;;;;;;5039090;28;20458;-65
2022/10/31 07:00:28;;;;;;;5.10;4.73;;;22.00;44.20;;;;;;5037210;28;20850;-64
2022/10/31 07:03:03;;;;;;;4.93;4.50;;;22.00;44.10;;;;;;5041412;28;20550;-65
2022/10/31 07:05:30;;;;;;;4.97;4.57;;;22.00;44.10;;;;;;5027315;28;20479;-65
2022/10/31 07:08:01;;;;;;;5.37;4.87;;;22.00;44.10;;;;;;5022399;28;21294;-64
2022/10/31 07:10:29;;;;;;;5.43;5.03;;;22.00;44.00;;;;;;5026220;28;20467;-64
2022/10/31 07:12:56;;;;;;;5.13;4.73;;;22.00;44.00;;;;;;5020953;28;20471;-64
2022/10/31 07:15:22;;;;;;;5.53;5.23;;;22.00;43.90;;;;;;5037719;28;21425;-64
2022/10/31 07:17:48;;;;;;;7.33;4.87;;;22.00;43.90;;;;;;5037840;28;20462;-64
2022/10/31 07:20:13;;;;;;;5.30;4.90;;;22.00;43.90;;;;;;5030887;28;20440;-64
2022/10/31 07:22:39;;;;;;;5.23;4.83;;;22.00;43.90;;;;;;5025701;28;20727;-65
2022/10/31 07:25:05;;;;;;;5.77;5.30;;;22.00;43.80;;;;;;5029502;28;20252;-64
2022/10/31 07:27:38;;;;;;;4.93;4.53;;;22.00;43.80;;;;;;5034997;28;20240;-65
2022/10/31 07:30:05;;;;;;;5.63;5.13;;;22.00;43.80;;;;;;5048429;28;20222;-64
2022/10/31 07:32:48;;;;;;;5.53;5.00;;;22.00;43.80;;;;;;5026986;28;20474;-65
2022/10/31 07:35:16;;;;;;;4.20;4.00;;;22.00;43.70;;;;;;5033644;28;20467;-65
2022/10/31 07:37:42;;;;;;;5.10;4.63;;;22.00;43.70;;;;;;5034784;28;21084;-65
2022/10/31 07:40:08;;;;;;;4.87;4.47;;;22.00;43.60;;;;;;5037448;28;20458;-66
2022/10/31 07:42:38;;;;;;;5.03;4.73;;;22.00;43.60;;;;;;5026115;28;20255;-63
2022/10/31 07:45:08;;;;;;;5.37;4.97;;;22.00;43.50;;;;;;5037168;28;20467;-65
2022/10/31 07:47:51;;;;;;;6.03;5.23;;;22.00;43.60;;;;;;5019633;28;20510;-64
2022/10/31 07:50:26;;;;;;;4.80;4.50;;;22.00;43.50;;;;;;5034043;28;20447;-64
2022/10/31 07:53:02;;;;;;;7.93;5.40;;;22.00;43.60;;;;;;5031926;28;20464;-62
2022/10/31 07:55:30;;;;;;;11.27;5.23;;;22.00;43.60;;;;;;5036458;28;20487;-63
2022/10/31 07:58:26;;;;;;;5.13;4.63;;;22.00;43.50;;;;;;5036136;28;20455;-64
2022/10/31 08:00:51;;;;;;;5.10;4.67;;;21.90;43.30;;;;;;5019298;28;20451;-63
2022/10/31 08:03:18;;;;;;;8.33;4.70;;;21.90;43.30;;;;;;5037049;28;20474;-64
2022/10/31 08:05:45;;;;;;;5.80;5.30;;;21.90;43.30;;;;;;5044852;28;20310;-64
2022/10/31 08:08:12;;;;;;;5.90;4.87;;;21.90;43.30;;;;;;5032724;28;21282;-65
2022/10/31 08:10:38;;;;;;;5.57;5.03;;;22.00;43.30;;;;;;5033174;28;20818;-64
2022/10/31 08:13:14;;;;;;;5.40;4.90;;;21.90;43.10;;;;;;5038035;28;20462;-63
2022/10/31 08:15:41;;;;;;;5.93;5.43;;;21.90;43.10;;;;;;5032647;28;20533;-64
2022/10/31 08:18:12;;;;;;;5.30;5.00;;;21.90;43.10;;;;;;5035597;28;20715;-64
2022/10/31 08:20:37;;;;;;;10.07;5.90;;;21.90;43.10;;;;;;5037347;28;20466;-65
2022/10/31 08:23:04;;;;;;;6.33;5.93;;;21.90;43.10;;;;;;5032298;28;20463;-64
2022/10/31 08:25:31;;;;;;;7.17;5.67;;;21.90;43.90;;;;;;5030714;28;20217;-65
2022/10/31 08:27:57;;;;;;;5.50;4.40;;;21.90;43.00;;;;;;5038749;28;20497;-65
2022/10/31 08:30:25;;;;;;;4.87;4.43;;;21.90;43.00;;;;;;5032362;28;20527;-64
2022/10/31 08:33:03;;;;;;;6.10;5.50;;;21.90;43.00;;;;;;5039988;28;20237;-64
2022/10/31 08:35:28;;;;;;;5.50;5.03;;;21.90;43.80;;;;;;5037322;28;20474;-64
2022/10/31 08:37:57;;;;;;;5.93;5.03;;;21.90;43.10;;;;;;5034678;28;20447;-65
2022/10/31 08:40:24;;;;;;;5.37;4.87;;;21.90;43.00;;;;;;5035313;28;20716;-65
2022/10/31 08:43:02;;;;;;;5.60;5.20;;;21.90;43.00;;;;;;5031067;28;20456;-65
2022/10/31 08:45:28;;;;;;;5.20;4.70;;;21.90;43.00;;;;;;5035194;28;20447;-64
2022/10/31 08:47:58;;;;;;;4.57;4.30;;;21.90;43.00;;;;;;5033824;28;20459;-65
2022/10/31 08:50:25;;;;;;;5.20;4.80;;;21.90;43.00;;;;;;5029234;28;20490;-65
2022/10/31 08:52:50;;;;;;;6.03;5.47;;;21.90;43.00;;;;;;5041278;28;20969;-64
2022/10/31 08:55:16;;;;;;;5.43;5.13;;;21.90;43.00;;;;;;5038634;28;20802;-63
2022/10/31 08:57:41;;;;;;;5.90;5.40;;;21.90;43.10;;;;;;5036576;28;20236;-63
2022/10/31 09:00:08;;;;;;;5.57;5.10;;;21.90;43.00;;;;;;5031015;28;20670;-63
2022/10/31 09:02:33;;;;;;;6.00;5.30;;;21.90;43.10;;;;;;5033315;28;20238;-64
2022/10/31 09:04:59;;;;;;;5.40;5.00;;;21.90;43.00;;;;;;5031751;28;20463;-64
2022/10/31 09:07:24;;;;;;;5.20;4.70;;;21.90;43.00;;;;;;5033637;28;20229;-64
2022/10/31 09:09:50;;;;;;;5.73;5.30;;;21.90;43.00;;;;;;5032166;28;20229;-63
2022/10/31 09:12:15;;;;;;;5.30;4.77;;;21.90;43.00;;;;;;5033864;28;20245;-64
2022/10/31 09:14:41;;;;;;;5.57;5.17;;;21.90;43.00;;;;;;5031107;28;20241;-64
2022/10/31 09:17:06;;;;;;;5.30;4.80;;;21.90;43.00;;;;;;5027868;28;20225;-64
2022/10/31 09:19:32;;;;;;;5.70;5.30;;;21.90;43.00;;;;;;5032342;28;20787;-64
2022/10/31 09:21:57;;;;;;;6.40;5.07;;;21.90;43.00;;;;;;5031879;28;20766;-64
2022/10/31 09:24:23;;;;;;;5.97;5.40;;;21.90;43.00;;;;;;5033457;28;20226;-63
2022/10/31 09:26:48;;;;;;;5.40;5.00;;;21.90;43.00;;;;;;5034988;28;20234;-64
2022/10/31 09:29:14;;;;;;;4.33;3.80;;;21.90;43.00;;;;;;5031704;28;20257;-64
2022/10/31 09:31:39;;;;;;;5.90;5.40;;;21.90;43.00;;;;;;5031144;28;20217;-65
2022/10/31 09:34:05;;;;;;;6.60;5.20;;;21.90;43.00;;;;;;5032640;28;20238;-64
2022/10/31 09:36:30;;;;;;;12.97;5.47;;;21.90;43.80;;;;;;5034557;28;20583;-64
2022/10/31 09:38:56;;;;;;;15.63;5.57;;;21.90;43.00;;;;;;5029314;28;20701;-64
2022/10/31 09:41:30;;;;;;;6.47;5.27;;;21.90;43.00;;;;;;5039716;28;20599;-63
2022/10/31 09:44:07;;;;;;;8.70;5.70;;;21.90;43.10;;;;;;5040464;28;20761;-63
2022/10/31 09:46:53;;;;;;;6.10;5.60;;;21.90;43.10;;;;;;5039866;28;20466;-64
2022/10/31 09:49:31;;;;;;;5.83;5.23;;;21.80;43.00;;;;;;5017976;28;20970;-64
2022/10/31 09:52:08;;;;;;;6.83;5.80;;;21.80;43.00;;;;;;5023815;28;21035;-64
2022/10/31 09:55:01;;;;;;;6.10;5.43;;;21.80;43.10;;;;;;5040530;28;21316;-66
2022/10/31 09:57:35;;;;;;;5.10;4.67;;;21.80;43.10;;;;;;5036466;28;21106;-64
2022/10/31 10:00:04;;;;;;;7.80;5.83;;;21.80;43.10;;;;;;5035091;28;21973;-65
2022/10/31 10:02:33;;;;;;;6.13;5.63;;;21.80;43.20;;;;;;5037535;28;20467;-64
2022/10/31 10:05:00;;;;;;;6.83;4.10;;;21.80;43.10;;;;;;5036584;28;21049;-64
2022/10/31 10:07:59;;;;;;;5.57;5.07;;;21.80;43.10;;;;;;5039216;28;20493;-65
2022/10/31 10:10:49;;;;;;;5.90;4.87;;;21.80;43.20;;;;;;5026115;28;20753;-65
2022/10/31 10:13:28;;;;;;;5.13;4.73;;;21.80;43.10;;;;;;5036740;28;20931;-65
2022/10/31 10:16:14;;;;;;;8.10;4.80;;;21.80;43.10;;;;;;5021993;28;20554;-62
2022/10/31 10:18:42;;;;;;;5.60;5.10;;;21.90;43.30;;;;;;5040424;28;20459;-64
2022/10/31 10:21:42;;;;;;;8.60;4.30;;;21.80;43.20;;;;;;5030262;28;20461;-64
2022/10/31 10:24:34;;;;;;;4.77;4.37;;;21.90;43.30;;;;;;5033872;28;20533;-65
2022/10/31 10:27:25;;;;;;;7.50;4.23;;;21.90;43.30;;;;;;5040314;28;20451;-65
2022/10/31 10:29:58;;;;;;;5.63;4.93;;;21.90;43.40;;;;;;5030707;28;20819;-62
2022/10/31 10:32:28;;;;;;;5.50;5.00;;;21.90;43.50;;;;;;5025761;28;20963;-65
2022/10/31 10:35:00;;;;;;;6.23;5.20;;;21.90;43.60;;;;;;5025658;28;20525;-63
2022/10/31 10:37:38;;;;;;;5.30;4.90;;;21.90;43.60;;;;;;5039881;28;20522;-64
2022/10/31 10:40:23;;;;;;;4.83;4.63;;;21.90;43.60;;;;;;5042597;28;20455;-64
2022/10/31 10:48:41;;;;;;;4.57;4.27;;;21.90;43.70;;;;;;5029832;28;20466;-64
2022/10/31 10:51:19;;;;;;;6.80;4.93;;;21.90;43.80;;;;;;5028606;28;20467;-66
2022/10/31 10:54:01;;;;;;;5.53;5.07;;;21.90;43.90;;;;;;5033299;28;21116;-65
2022/10/31 10:56:50;;;;;;;5.73;5.23;;;21.90;43.90;;;;;;5031416;28;20486;-64
2022/10/31 10:59:19;;;;;;;4.67;4.37;;;21.90;43.90;;;;;;5035602;28;20451;-64
2022/10/31 11:01:47;;;;;;;5.60;5.20;;;21.90;44.00;;;;;;5034561;28;20464;-65
2022/10/31 11:04:27;;;;;;;5.30;4.97;;;21.90;44.00;;;;;;5035228;28;21016;-65
2022/10/31 11:07:06;;;;;;;5.00;4.67;;;21.90;44.00;;;;;;5051069;28;20954;-64
2022/10/31 11:09:32;;;;;;;5.57;5.10;;;21.90;44.10;;;;;;5035001;28;20467;-62
2022/10/31 11:11:59;;;;;;;4.80;4.50;;;21.90;44.10;;;;;;5038163;28;20501;-65
2022/10/31 11:14:26;;;;;;;5.77;5.40;;;21.90;44.20;;;;;;5036940;28;20526;-64
2022/10/31 11:17:08;;;;;;;5.50;5.00;;;21.90;44.20;;;;;;5037723;28;20451;-65
2022/10/31 11:19:34;;;;;;;5.77;5.30;;;21.90;44.20;;;;;;5030893;28;20499;-64
2022/10/31 11:22:07;;;;;;;5.47;5.07;;;21.90;44.30;;;;;;5035773;28;20550;-65
2022/10/31 11:24:39;;;;;;;5.30;5.00;;;21.90;44.30;;;;;;5030172;28;20221;-64
2022/10/31 11:27:20;;;;;;;5.60;5.10;;;21.90;44.30;;;;;;5035607;28;20474;-63
2022/10/31 11:29:46;;;;;;;5.70;5.20;;;21.90;44.30;;;;;;5033704;28;20517;-65
2022/10/31 11:32:23;;;;;;;4.67;4.10;;;21.90;44.50;;;;;;5032781;28;20463;-64
2022/10/31 11:34:55;;;;;;;5.60;5.10;;;21.90;44.50;;;;;;5033690;28;20245;-63
2022/10/31 11:37:27;;;;;;;5.57;5.10;;;21.90;44.50;;;;;;5033163;28;20539;-65
2022/10/31 11:40:04;;;;;;;6.20;5.70;;;21.90;44.50;;;;;;5030488;28;20462;-65
2022/10/31 11:42:37;;;;;;;5.90;5.33;;;21.90;44.50;;;;;;5028434;28;20459;-65
2022/10/31 11:45:13;;;;;;;5.60;5.27;;;21.90;44.60;;;;;;5022425;28;20470;-64
2022/10/31 11:47:44;;;;;;;4.50;4.20;;;21.90;44.60;;;;;;5033663;28;20533;-64
2022/10/31 11:50:15;;;;;;;6.00;5.50;;;21.90;44.60;;;;;;5025665;28;20450;-63
2022/10/31 11:52:40;;;;;;;5.20;4.90;;;21.90;44.70;;;;;;5009789;28;20959;-65
2022/10/31 11:55:12;;;;;;;8.50;4.97;;;21.90;44.70;;;;;;5032880;28;20467;-66
2022/10/31 11:57:46;;;;;;;4.57;4.37;;;21.90;44.70;;;;;;5032574;28;20227;-65
2022/10/31 12:00:38;;;;;;;5.03;4.73;;;21.90;44.70;;;;;;5025146;28;20528;-65
2022/10/31 12:03:21;;;;;;;5.57;5.20;;;21.90;44.80;;;;;;5032237;28;20600;-64
2022/10/31 12:05:56;;;;;;;5.80;5.30;;;21.90;44.80;;;;;;5034226;28;20425;-63
2022/10/31 12:08:23;;;;;;;5.30;4.90;;;21.90;44.90;;;;;;5035179;28;20471;-64
2022/10/31 12:11:21;;;;;;;5.83;5.40;;;21.90;44.90;;;;;;5032840;28;20447;-64
2022/10/31 12:14:02;;;;;;;5.90;5.50;;;21.90;44.90;;;;;;5029854;28;20463;-65
2022/10/31 12:16:59;;;;;;;6.30;5.73;;;21.90;44.90;;;;;;5032680;28;20451;-66
2022/10/31 12:19:42;;;;;;;5.50;5.00;;;21.90;44.90;;;;;;5026142;28;20455;-63
2022/10/31 12:22:23;;;;;;;6.30;5.87;;;21.90;45.00;;;;;;5031574;28;20456;-65
2022/10/31 12:24:48;;;;;;;5.03;4.73;;;21.90;45.00;;;;;;5022717;28;21063;-64
2022/10/31 12:27:33;;;;;;;4.83;4.53;;;21.90;45.00;;;;;;5036697;28;20447;-63
2022/10/31 12:30:17;;;;;;;4.60;4.40;;;21.90;45.00;;;;;;5036289;28;20327;-65
2022/10/31 12:33:27;;;;;;;4.73;4.50;;;21.90;45.10;;;;;;5034755;28;20546;-63
2022/10/31 12:36:09;;;;;;;4.70;4.40;;;21.90;45.00;;;;;;5024440;28;20468;-65
2022/10/31 12:38:57;;;;;;;4.70;4.40;;;21.90;45.10;;;;;;5030247;28;21004;-65
2022/10/31 12:41:54;;;;;;;4.60;4.40;;;21.90;45.10;;;;;;5024610;28;20563;-63
2022/10/31 12:44:34;;;;;;;5.80;5.40;;;21.90;45.10;;;;;;5034193;28;21297;-65
2022/10/31 12:47:37;;;;;;;5.40;5.10;;;21.90;45.20;;;;;;5025024;28;20451;-63
2022/10/31 12:50:34;;;;;;;5.77;5.27;;;22.00;45.30;;;;;;5033066;28;20474;-65
2022/10/31 12:53:09;;;;;;;5.40;5.00;;;22.00;45.30;;;;;;5030174;28;20977;-64
2022/10/31 12:55:53;;;;;;;5.50;5.10;;;21.90;45.20;;;;;;5025301;28;20459;-62
2022/10/31 12:58:29;;;;;;;4.93;4.63;;;22.00;45.30;;;;;;5032730;28;20454;-64
2022/10/31 13:01:16;;;;;;;4.90;4.50;;;22.00;45.30;;;;;;5028952;28;20505;-64
2022/10/31 13:03:57;;;;;;;5.00;4.70;;;22.00;45.40;;;;;;5028490;28;20456;-65
2022/10/31 13:06:30;;;;;;;5.63;5.10;;;22.00;45.30;;;;;;5013249;28;20922;-64
2022/10/31 13:09:10;;;;;;;5.57;5.17;;;22.00;45.30;;;;;;5025569;28;21731;-63
2022/10/31 13:11:40;;;;;;;5.30;4.90;;;22.00;45.30;;;;;;5025030;28;20457;-64
2022/10/31 13:14:11;;;;;;;5.53;5.20;;;22.00;45.50;;;;;;5016728;28;20472;-64